Time;durP1;ratioP1;P1;durP2;ratioP2;P2;SDS_P1;SDS_P2;PMS_P1;PMS_P2;Temp;Humidity;BMP_temperature;BMP_pressure;BME280_temperature;BME280_humidity;BME280_pressure;Samples;Min_cycle;Max_cycle;Signal;HPM_P1;HPM_P2
2022/10/09 00:01:03;;;;;;;;;;;20.10;99.90;;;;;;5004093;28;19937;-67
2022/10/09 00:03:31;;;;;;;;;;;20.10;99.90;;;;;;5016969;28;20393;-68
2022/10/09 00:05:58;;;;;;;;;;;20.10;99.90;;;;;;5003787;28;19925;-67
2022/10/09 00:08:25;;;;;;;;;;;20.10;99.90;;;;;;5018152;28;19930;-64
2022/10/09 00:10:52;;;;;;;;;;;20.10;99.90;;;;;;5000802;28;20322;-65
2022/10/09 00:13:19;;;;;;;;;;;20.10;99.90;;;;;;5019415;28;19929;-66
2022/10/09 00:15:46;;;;;;;;;;;20.10;99.90;;;;;;5018427;28;19929;-65
2022/10/09 00:18:15;;;;;;;;;;;20.10;99.90;;;;;;5009637;28;19929;-66
2022/10/09 00:20:43;;;;;;;;;;;20.10;99.90;;;;;;5023975;28;20401;-67
2022/10/09 00:23:13;;;;;;;;;;;20.10;99.90;;;;;;5016794;28;20396;-67
2022/10/09 00:25:49;;;;;;;;;;;20.00;99.90;;;;;;5005506;28;19953;-66
2022/10/09 00:28:16;;;;;;;;;;;20.00;99.90;;;;;;5018008;28;20410;-67
2022/10/09 00:30:43;;;;;;;;;;;20.00;99.90;;;;;;5005573;28;19926;-66
2022/10/09 00:33:10;;;;;;;;;;;20.00;99.90;;;;;;5003848;28;19957;-67
2022/10/09 00:35:37;;;;;;;;;;;20.00;99.90;;;;;;5009149;28;20392;-67
2022/10/09 00:38:05;;;;;;;;;;;20.00;99.90;;;;;;5008465;28;20392;-67
2022/10/09 00:40:32;;;;;;;;;;;20.00;99.90;;;;;;5013732;28;19937;-67
2022/10/09 00:43:00;;;;;;;;;;;20.00;99.90;;;;;;5014000;28;19929;-67
2022/10/09 00:45:27;;;;;;;;;;;20.00;99.90;;;;;;5005118;28;19925;-67
2022/10/09 00:48:02;;;;;;;;;;;19.90;99.90;;;;;;5015940;28;19934;-67
2022/10/09 00:50:43;;;;;;;;;;;20.00;99.90;;;;;;5018414;28;19940;-67
2022/10/09 00:53:12;;;;;;;;;;;20.00;99.90;;;;;;5016286;28;19936;-67
2022/10/09 00:55:39;;;;;;;;;;;19.90;99.90;;;;;;5008032;28;20426;-66
2022/10/09 00:58:07;;;;;;;;;;;19.90;99.90;;;;;;5003249;28;20309;-66
2022/10/09 01:00:34;;;;;;;;;;;19.90;99.90;;;;;;5010033;28;19937;-67
2022/10/09 01:03:01;;;;;;;;;;;19.90;99.90;;;;;;5005606;28;20423;-66
2022/10/09 01:05:51;;;;;;;;;;;19.90;99.90;;;;;;5001432;28;19933;-67
2022/10/09 01:08:23;;;;;;;;;;;19.90;99.90;;;;;;4999990;28;19930;-67
2022/10/09 01:10:58;;;;;;;;;;;19.90;99.90;;;;;;5013688;28;19929;-67
2022/10/09 01:13:33;;;;;;;;;;;19.90;99.90;;;;;;5008808;28;20389;-66
2022/10/09 01:16:02;;;;;;;;;;;19.90;99.90;;;;;;5012209;28;19948;-67
2022/10/09 01:18:35;;;;;;;;;;;19.90;99.90;;;;;;5010597;28;20400;-67
2022/10/09 01:21:05;;;;;;;;;;;19.90;99.90;;;;;;5012311;28;19951;-66
2022/10/09 01:23:51;;;;;;;;;;;19.90;99.90;;;;;;5015819;28;19949;-67
2022/10/09 01:26:54;;;;;;;;;;;19.80;99.90;;;;;;5009830;28;20484;-66
2022/10/09 01:29:23;;;;;;;;;;;19.80;99.90;;;;;;4943992;29;20406;-67
2022/10/09 01:31:50;;;;;;;;;;;19.80;99.90;;;;;;4986668;28;19929;-67
2022/10/09 01:34:19;;;;;;;;;;;19.80;99.90;;;;;;5016632;28;19925;-67
2022/10/09 01:36:46;;;;;;;;;;;19.80;99.90;;;;;;4997956;28;19933;-67
2022/10/09 01:39:18;;;;;;;;;;;19.80;99.90;;;;;;5015850;28;19934;-67
2022/10/09 01:41:46;;;;;;;;;;;19.80;99.90;;;;;;5018859;28;19936;-67
2022/10/09 01:44:21;;;;;;;;;;;19.80;99.90;;;;;;4999284;28;19936;-67
2022/10/09 01:46:48;;;;;;;;;;;19.80;99.90;;;;;;5009910;28;19925;-65
2022/10/09 01:49:24;;;;;;;;;;;19.80;99.90;;;;;;5002015;28;19930;-66
2022/10/09 01:52:09;;;;;;;;;;;19.70;99.90;;;;;;5011700;28;19926;-65
2022/10/09 01:54:52;;;;;;;;;;;19.70;99.90;;;;;;4999545;28;19925;-65
2022/10/09 01:57:26;;;;;;;;;;;19.80;99.90;;;;;;5008543;28;19932;-66
2022/10/09 01:59:54;;;;;;;;;;;19.80;99.90;;;;;;5000048;28;19949;-66
2022/10/09 02:02:21;;;;;;;;;;;19.70;99.90;;;;;;5010759;28;19948;-67
2022/10/09 02:04:48;;;;;;;;;;;19.70;99.90;;;;;;5012550;28;19925;-65
2022/10/09 02:07:16;;;;;;;;;;;19.80;99.90;;;;;;5015668;28;19933;-65
2022/10/09 02:09:44;;;;;;;;;;;19.70;99.90;;;;;;5000638;28;19937;-67
2022/10/09 02:12:12;;;;;;;;;;;19.70;99.90;;;;;;5000649;28;19933;-67
2022/10/09 02:14:39;;;;;;;;;;;19.70;99.90;;;;;;5009672;28;20476;-67
2022/10/09 02:17:10;;;;;;;;;;;19.70;99.90;;;;;;5010524;28;19925;-67
2022/10/09 02:19:41;;;;;;;;;;;19.70;99.90;;;;;;4995334;28;19929;-67
2022/10/09 02:22:17;;;;;;;;;;;19.70;99.90;;;;;;5002599;28;19926;-67
2022/10/09 02:24:44;;;;;;;;;;;19.70;99.90;;;;;;5011694;28;20399;-67
2022/10/09 02:27:12;;;;;;;;;;;19.70;99.90;;;;;;5009505;28;19952;-67
2022/10/09 02:29:43;;;;;;;;;;;19.60;99.90;;;;;;5005431;28;19926;-67
2022/10/09 02:32:11;;;;;;;;;;;19.60;99.90;;;;;;5003167;28;19936;-67
2022/10/09 02:34:38;;;;;;;;;;;19.70;99.90;;;;;;5004280;28;20285;-66
2022/10/09 02:37:06;;;;;;;;;;;19.60;99.90;;;;;;5006883;28;19930;-65
2022/10/09 02:39:33;;;;;;;;;;;19.60;99.90;;;;;;5003859;28;19925;-67
2022/10/09 02:42:00;;;;;;;;;;;19.60;99.90;;;;;;5004984;28;20419;-68
2022/10/09 02:44:27;;;;;;;;;;;19.60;99.90;;;;;;5007458;28;19933;-65
2022/10/09 02:46:54;;;;;;;;;;;19.60;99.90;;;;;;5006205;28;19949;-67
2022/10/09 02:49:21;;;;;;;;;;;19.60;99.90;;;;;;5002532;28;19925;-68
2022/10/09 02:51:48;;;;;;;;;;;19.60;99.90;;;;;;4998093;28;19948;-67
2022/10/09 02:54:16;;;;;;;;;;;19.60;99.90;;;;;;5006857;28;19925;-67
2022/10/09 02:56:43;;;;;;;;;;;19.60;99.90;;;;;;5014802;28;19925;-67
2022/10/09 02:59:10;;;;;;;;;;;19.60;99.90;;;;;;5000233;28;19936;-67
2022/10/09 03:01:37;;;;;;;;;;;19.60;99.90;;;;;;5004956;28;19925;-67
2022/10/09 03:04:04;;;;;;;;;;;19.60;99.90;;;;;;5028105;28;20420;-67
2022/10/09 03:06:31;;;;;;;;;;;19.50;99.90;;;;;;5024902;28;19933;-67
2022/10/09 03:08:58;;;;;;;;;;;19.50;99.90;;;;;;5022176;28;19936;-66
2022/10/09 03:11:25;;;;;;;;;;;19.50;99.90;;;;;;5021176;28;19930;-67
2022/10/09 03:13:53;;;;;;;;;;;19.50;99.90;;;;;;5010412;28;19929;-67
2022/10/09 03:16:22;;;;;;;;;;;19.50;99.90;;;;;;5010500;28;20410;-65
2022/10/09 03:18:50;;;;;;;;;;;19.50;99.90;;;;;;5012055;28;19937;-67
2022/10/09 03:21:21;;;;;;;;;;;19.50;99.90;;;;;;5015378;28;19936;-64
2022/10/09 03:23:49;;;;;;;;;;;19.50;99.90;;;;;;5001750;28;19927;-67
2022/10/09 03:26:17;;;;;;;;;;;19.50;99.90;;;;;;5009193;28;19925;-67
2022/10/09 03:28:46;;;;;;;;;;;19.40;99.90;;;;;;5009767;28;20401;-67
2022/10/09 03:31:15;;;;;;;;;;;19.50;99.90;;;;;;5007573;28;19936;-67
2022/10/09 03:34:02;;;;;;;;;;;19.50;99.90;;;;;;5007277;28;19930;-67
2022/10/09 03:36:29;;;;;;;;;;;19.50;99.90;;;;;;5011715;28;20346;-67
2022/10/09 03:38:56;;;;;;;;;;;19.40;99.90;;;;;;5021356;28;19936;-67
2022/10/09 03:41:23;;;;;;;;;;;19.40;99.90;;;;;;5011499;28;19930;-67
2022/10/09 03:43:50;;;;;;;;;;;19.40;99.90;;;;;;5009782;28;20415;-67
2022/10/09 03:46:17;;;;;;;;;;;19.40;99.90;;;;;;5000830;28;19936;-66
2022/10/09 03:48:44;;;;;;;;;;;19.40;99.90;;;;;;5013181;28;19929;-66
2022/10/09 03:51:11;;;;;;;;;;;19.40;99.90;;;;;;5020014;28;20421;-65
2022/10/09 03:53:38;;;;;;;;;;;19.50;99.90;;;;;;5010076;28;19936;-66
2022/10/09 03:56:05;;;;;;;;;;;19.60;99.90;;;;;;5009305;28;19937;-66
2022/10/09 03:58:32;;;;;;;;;;;19.90;99.90;;;;;;5016091;28;19929;-65
2022/10/09 04:00:59;;;;;;;;;;;20.20;99.90;;;;;;5000581;28;19930;-68
2022/10/09 04:03:26;;;;;;;;;;;20.50;99.90;;;;;;5018012;28;19932;-66
2022/10/09 04:05:53;;;;;;;;;;;20.80;99.90;;;;;;4999477;28;19941;-65
2022/10/09 04:08:21;;;;;;;;;;;21.00;99.90;;;;;;5012533;28;19926;-66
2022/10/09 04:10:54;;;;;;;;;;;21.20;99.90;;;;;;5012779;28;19941;-65
2022/10/09 04:13:21;;;;;;;;;;;21.40;99.90;;;;;;5011706;28;19925;-65
2022/10/09 04:15:49;;;;;;;;;;;21.50;99.90;;;;;;5009500;28;19925;-65
2022/10/09 04:18:17;;;;;;;;;;;21.60;99.90;;;;;;5023239;28;19930;-66
2022/10/09 04:20:48;;;;;;;;;;;21.70;99.90;;;;;;5014259;28;19929;-67
2022/10/09 04:23:15;;;;;;;;;;;21.80;99.90;;;;;;5014994;28;19940;-68
2022/10/09 04:25:42;;;;;;;;;;;21.80;99.90;;;;;;5018768;28;19938;-65
2022/10/09 04:28:09;;;;;;;;;;;21.90;99.90;;;;;;5016647;28;20271;-65
2022/10/09 04:30:36;;;;;;;;;;;22.00;99.90;;;;;;5009897;28;20449;-66
2022/10/09 04:33:04;;;;;;;;;;;22.00;99.90;;;;;;5001839;28;19933;-67
2022/10/09 04:35:41;;;;;;;;;;;22.10;99.90;;;;;;5009828;28;19929;-68
2022/10/09 04:38:09;;;;;;;;;;;22.10;99.90;;;;;;5003830;28;19926;-67
2022/10/09 04:40:36;;;;;;;;;;;22.20;99.90;;;;;;5011594;28;19929;-67
2022/10/09 04:43:03;;;;;;;;;;;22.20;99.90;;;;;;5011189;28;20333;-67
2022/10/09 04:45:30;;;;;;;;;;;22.20;99.90;;;;;;5008214;28;19936;-67
2022/10/09 04:47:57;;;;;;;;;;;22.20;99.90;;;;;;5009237;28;19926;-68
2022/10/09 04:50:24;;;;;;;;;;;22.20;99.90;;;;;;5004932;28;19933;-67
2022/10/09 04:52:57;;;;;;;;;;;22.10;99.90;;;;;;5007160;28;20416;-66
2022/10/09 04:55:24;;;;;;;;;;;22.10;99.90;;;;;;5005457;28;19936;-68
2022/10/09 04:57:51;;;;;;;;;;;22.00;99.90;;;;;;5016528;28;19932;-67
2022/10/09 05:00:18;;;;;;;;;;;22.00;99.90;;;;;;5000052;28;19929;-66
2022/10/09 05:02:45;;;;;;;;;;;22.00;99.90;;;;;;5014994;28;19928;-67
2022/10/09 05:05:13;;;;;;;;;;;21.90;99.90;;;;;;5004444;28;20007;-66
2022/10/09 05:07:40;;;;;;;;;;;21.90;99.90;;;;;;5007928;28;19937;-67
2022/10/09 05:10:07;;;;;;;;;;;21.80;99.90;;;;;;5016942;28;19937;-68
2022/10/09 05:12:34;;;;;;;;;;;21.80;99.90;;;;;;5016327;28;19930;-67
2022/10/09 05:15:01;;;;;;;;;;;21.70;99.90;;;;;;5017643;28;19926;-66
2022/10/09 05:17:28;;;;;;;;;;;21.70;99.90;;;;;;5020069;28;19936;-67
2022/10/09 05:19:55;;;;;;;;;;;21.70;99.90;;;;;;5023884;28;19998;-65
2022/10/09 05:22:22;;;;;;;;;;;21.60;99.90;;;;;;5015359;28;20445;-66
2022/10/09 05:24:49;;;;;;;;;;;21.60;99.90;;;;;;5021383;28;19936;-66
2022/10/09 05:27:16;;;;;;;;;;;21.60;99.90;;;;;;5011876;28;19941;-68
2022/10/09 05:29:43;;;;;;;;;;;21.50;99.90;;;;;;5003844;28;19930;-67
2022/10/09 05:32:10;;;;;;;;;;;21.50;99.90;;;;;;5003581;28;19930;-67
2022/10/09 05:34:38;;;;;;;;;;;21.50;99.90;;;;;;5009267;28;19936;-67
2022/10/09 05:37:05;;;;;;;;;;;21.40;99.90;;;;;;5001060;28;19952;-68
2022/10/09 05:39:34;;;;;;;;;;;21.40;99.90;;;;;;5011351;28;19929;-67
2022/10/09 05:42:01;;;;;;;;;;;21.30;99.90;;;;;;5013301;28;19929;-67
2022/10/09 05:44:28;;;;;;;;;;;21.30;99.90;;;;;;5007471;28;19936;-65
2022/10/09 05:46:55;;;;;;;;;;;21.30;99.90;;;;;;4998297;28;19930;-67
2022/10/09 05:49:22;;;;;;;;;;;21.20;99.90;;;;;;5009195;28;19937;-68
2022/10/09 05:51:50;;;;;;;;;;;21.20;99.90;;;;;;5014436;28;19936;-67
2022/10/09 05:54:17;;;;;;;;;;;21.20;99.90;;;;;;5009192;28;19933;-67
2022/10/09 05:56:44;;;;;;;;;;;21.10;99.90;;;;;;5020060;28;20412;-67
2022/10/09 05:59:18;;;;;;;;;;;21.10;99.90;;;;;;5017761;28;19929;-68
2022/10/09 06:01:49;;;;;;;;;;;21.10;99.90;;;;;;5013802;28;19936;-66
2022/10/09 06:04:17;;;;;;;;;;;21.10;99.90;;;;;;5002634;28;19929;-67
2022/10/09 06:06:46;;;;;;;;;;;21.10;99.90;;;;;;4999615;28;19935;-66
2022/10/09 06:09:14;;;;;;;;;;;21.10;99.90;;;;;;5004039;28;19929;-64
2022/10/09 06:11:41;;;;;;;;;;;21.10;99.90;;;;;;5001261;28;19926;-67
2022/10/09 06:14:09;;;;;;;;;;;21.10;99.90;;;;;;5007453;28;19925;-65
2022/10/09 06:16:37;;;;;;;;;;;21.20;99.90;;;;;;5005205;28;19957;-65
2022/10/09 06:19:05;;;;;;;;;;;21.20;99.90;;;;;;5000736;28;19936;-66
2022/10/09 06:21:33;;;;;;;;;;;21.20;99.90;;;;;;4996865;28;19932;-65
2022/10/09 06:24:00;;;;;;;;;;;21.20;99.90;;;;;;5002494;28;19930;-66
2022/10/09 06:26:28;;;;;;;;;;;21.20;99.90;;;;;;5012898;28;20135;-66
2022/10/09 06:28:55;;;;;;;;;;;21.20;99.90;;;;;;5008494;28;20432;-67
2022/10/09 06:31:24;;;;;;;;;;;21.30;99.90;;;;;;5010712;28;19929;-67
2022/10/09 06:33:52;;;;;;;;;;;21.30;99.90;;;;;;5017357;28;19929;-67
2022/10/09 06:36:24;;;;;;;;;;;21.30;99.90;;;;;;5001102;28;20313;-65
2022/10/09 06:38:51;;;;;;;;;;;21.40;99.90;;;;;;5005376;28;19932;-66
2022/10/09 06:41:24;;;;;;;;;;;21.40;99.90;;;;;;5012498;28;19930;-66
2022/10/09 06:43:52;;;;;;;;;;;21.40;99.90;;;;;;5008178;28;19925;-67
2022/10/09 06:46:20;;;;;;;;;;;21.40;99.90;;;;;;5017126;28;19937;-66
2022/10/09 06:48:48;;;;;;;;;;;21.50;99.90;;;;;;5013049;28;20384;-68
2022/10/09 06:51:16;;;;;;;;;;;21.50;99.90;;;;;;5008088;28;19930;-66
2022/10/09 06:53:44;;;;;;;;;;;21.50;99.90;;;;;;5009738;28;20027;-65
2022/10/09 06:56:12;;;;;;;;;;;21.60;99.90;;;;;;5019687;28;19926;-68
2022/10/09 06:58:39;;;;;;;;;;;21.60;99.90;;;;;;5003251;28;19925;-67
2022/10/09 07:01:10;;;;;;;;;;;21.60;99.90;;;;;;5001226;28;19926;-68
2022/10/09 07:03:39;;;;;;;;;;;21.60;99.90;;;;;;5008435;28;19956;-67
2022/10/09 07:06:06;;;;;;;;;;;21.60;99.90;;;;;;5018305;28;19932;-67
2022/10/09 07:08:33;;;;;;;;;;;21.60;99.90;;;;;;5000000;28;19948;-67
2022/10/09 07:11:06;;;;;;;;;;;21.60;99.90;;;;;;5018025;28;19929;-67
2022/10/09 07:13:33;;;;;;;;;;;21.60;99.90;;;;;;5003483;28;19925;-67
2022/10/09 07:16:00;;;;;;;;;;;21.60;99.90;;;;;;5013841;28;20344;-67
2022/10/09 07:18:32;;;;;;;;;;;21.50;99.90;;;;;;5009710;28;20048;-67
2022/10/09 07:21:00;;;;;;;;;;;21.50;99.90;;;;;;5022138;28;19929;-67
2022/10/09 07:23:28;;;;;;;;;;;21.50;99.90;;;;;;5015173;28;20001;-67
2022/10/09 07:25:55;;;;;;;;;;;21.50;99.90;;;;;;5025981;28;20443;-68
2022/10/09 07:28:23;;;;;;;;;;;21.40;99.90;;;;;;5015795;28;19958;-67
2022/10/09 07:30:51;;;;;;;;;;;21.40;99.90;;;;;;5026320;28;19933;-67
2022/10/09 07:33:18;;;;;;;;;;;21.40;99.90;;;;;;5016719;28;19936;-67
2022/10/09 07:35:52;;;;;;;;;;;21.40;99.90;;;;;;5013600;28;19929;-66
2022/10/09 07:38:20;;;;;;;;;;;21.30;99.90;;;;;;5008077;28;19937;-67
2022/10/09 07:40:47;;;;;;;;;;;21.30;99.90;;;;;;5008740;28;19934;-67
2022/10/09 07:43:15;;;;;;;;;;;21.20;99.90;;;;;;5017030;28;19929;-67
2022/10/09 07:45:42;;;;;;;;;;;21.20;99.90;;;;;;5014812;28;19925;-67
2022/10/09 07:48:09;;;;;;;;;;;21.20;99.90;;;;;;5014088;28;20393;-66
2022/10/09 07:50:36;;;;;;;;;;;21.20;99.90;;;;;;5015868;28;20188;-67
2022/10/09 07:53:03;;;;;;;;;;;21.10;99.90;;;;;;5016914;28;19926;-67
2022/10/09 07:55:30;;;;;;;;;;;21.10;99.90;;;;;;5017838;28;19941;-68
2022/10/09 07:57:57;;;;;;;;;;;21.10;99.90;;;;;;5008594;28;19940;-67
2022/10/09 08:00:24;;;;;;;;;;;21.10;99.90;;;;;;5008481;28;19930;-67
2022/10/09 08:02:51;;;;;;;;;;;21.10;99.90;;;;;;5012020;28;19930;-66
2022/10/09 08:05:19;;;;;;;;;;;21.10;99.90;;;;;;5008777;28;20316;-68
2022/10/09 08:07:46;;;;;;;;;;;21.10;99.90;;;;;;5010322;28;19929;-67
2022/10/09 08:10:13;;;;;;;;;;;21.10;99.90;;;;;;5019676;28;19929;-67
2022/10/09 08:12:40;;;;;;;;;;;21.20;99.90;;;;;;5010617;28;19930;-66
2022/10/09 08:15:08;;;;;;;;;;;21.20;99.90;;;;;;5011150;28;19944;-67
2022/10/09 08:17:35;;;;;;;;;;;21.20;99.90;;;;;;5002783;28;19936;-67
2022/10/09 08:20:02;;;;;;;;;;;21.20;99.90;;;;;;5017842;28;19930;-66
2022/10/09 08:22:29;;;;;;;;;;;21.30;99.90;;;;;;5001440;28;20312;-66
2022/10/09 08:24:56;;;;;;;;;;;21.30;99.90;;;;;;5014217;28;19929;-67
2022/10/09 08:27:23;;;;;;;;;;;21.40;99.90;;;;;;5024704;28;19936;-67
2022/10/09 08:29:50;;;;;;;;;;;21.40;99.90;;;;;;5007754;28;19952;-67
2022/10/09 08:32:17;;;;;;;;;;;21.50;99.90;;;;;;5015875;28;19949;-67
2022/10/09 08:34:45;;;;;;;;;;;21.60;99.90;;;;;;5023155;28;19929;-66
2022/10/09 08:37:12;;;;;;;;;;;21.60;99.90;;;;;;5005291;28;19933;-66
2022/10/09 08:39:39;;;;;;;;;;;21.70;99.90;;;;;;5017266;28;19925;-67
2022/10/09 08:42:14;;;;;;;;;;;21.70;99.90;;;;;;5013695;28;20004;-68
2022/10/09 08:44:44;;;;;;;;;;;21.70;99.90;;;;;;5007232;28;19925;-68
2022/10/09 08:47:11;;;;;;;;;;;21.70;99.90;;;;;;5021844;28;19925;-67
2022/10/09 08:49:38;;;;;;;;;;;21.70;99.90;;;;;;5020980;28;19930;-67
2022/10/09 08:52:14;;;;;;;;;;;21.70;99.90;;;;;;5010076;28;19926;-67
2022/10/09 08:54:42;;;;;;;;;;;21.70;99.90;;;;;;5000411;28;19936;-67
2022/10/09 08:57:11;;;;;;;;;;;21.70;99.90;;;;;;5006881;28;19933;-67
2022/10/09 08:59:38;;;;;;;;;;;21.70;99.90;;;;;;5011910;28;19930;-67
2022/10/09 09:02:24;;;;;;;;;;;21.70;99.90;;;;;;5015577;28;19945;-67
2022/10/09 09:05:06;;;;;;;;;;;21.70;99.90;;;;;;5012785;28;19937;-68
2022/10/09 09:07:46;;;;;;;;;;;21.70;99.90;;;;;;4999665;28;20405;-68
2022/10/09 09:10:16;;;;;;;;;;;21.60;99.90;;;;;;5011287;28;19937;-67
2022/10/09 09:12:51;;;;;;;;;;;21.60;99.90;;;;;;5010809;28;19929;-68
2022/10/09 09:15:28;;;;;;;;;;;21.60;99.90;;;;;;5003633;28;19934;-68
2022/10/09 09:18:14;;;;;;;;;;;21.60;99.90;;;;;;5014715;28;19936;-68
2022/10/09 09:20:52;;;;;;;;;;;21.50;99.90;;;;;;5022414;28;20419;-67
2022/10/09 09:23:24;;;;;;;;;;;21.50;99.90;;;;;;5016388;28;19933;-68
2022/10/09 09:25:52;;;;;;;;;;;21.50;99.90;;;;;;5009978;28;19926;-67
2022/10/09 09:28:22;;;;;;;;;;;21.40;99.90;;;;;;5019137;28;19936;-68
2022/10/09 09:30:51;;;;;;;;;;;21.40;99.90;;;;;;5005957;28;20252;-68
2022/10/09 09:33:23;;;;;;;;;;;21.40;99.90;;;;;;5014995;28;19929;-68
2022/10/09 09:36:09;;;;;;;;;;;21.30;99.90;;;;;;5008422;28;19929;-66
2022/10/09 09:38:36;;;;;;;;;;;21.30;99.90;;;;;;5008308;28;19932;-66
2022/10/09 09:41:23;;;;;;;;;;;21.30;99.90;;;;;;5021756;28;19941;-66
2022/10/09 09:43:50;;;;;;;;;;;21.20;99.90;;;;;;5010681;28;19940;-67
2022/10/09 09:46:20;;;;;;;;;;;21.20;99.90;;;;;;5002473;28;19925;-66
2022/10/09 09:48:47;;;;;;;;;;;21.20;99.90;;;;;;5008923;28;19926;-67
2022/10/09 09:51:19;;;;;;;;;;;21.20;99.90;;;;;;5017211;28;19937;-67
2022/10/09 09:53:58;;;;;;;;;;;21.20;99.90;;;;;;5003676;28;19972;-67
2022/10/09 09:56:51;;;;;;;;;;;21.20;99.90;;;;;;5008265;28;19937;-67
2022/10/09 09:59:40;;;;;;;;;;;21.20;99.90;;;;;;5007985;28;19929;-66
2022/10/09 10:02:13;;;;;;;;;;;21.30;99.90;;;;;;5009964;28;20404;-66
2022/10/09 10:04:55;;;;;;;;;;;21.30;99.90;;;;;;5001139;28;19933;-66
2022/10/09 10:07:29;;;;;;;;;;;21.30;99.90;;;;;;5007745;28;20401;-66
2022/10/09 10:10:03;;;;;;;;;;;21.40;99.90;;;;;;5017103;28;19926;-66
2022/10/09 10:12:30;;;;;;;;;;;21.50;99.90;;;;;;5017980;28;19936;-66
2022/10/09 10:14:57;;;;;;;;;;;21.50;99.90;;;;;;5008468;28;20304;-67
2022/10/09 10:17:27;;;;;;;;;;;21.60;99.90;;;;;;5004617;28;19930;-67
2022/10/09 10:19:54;;;;;;;;;;;21.70;99.90;;;;;;5003352;28;19926;-66
2022/10/09 10:22:23;;;;;;;;;;;21.60;99.90;;;;;;5026346;28;19933;-66
2022/10/09 10:24:52;;;;;;;;;;;21.70;99.90;;;;;;5018862;28;19926;-66
2022/10/09 10:27:24;;;;;;;;;;;21.70;99.90;;;;;;5012688;28;19930;-65
2022/10/09 10:29:54;;;;;;;;;;;21.70;99.90;;;;;;5014688;28;19929;-66
2022/10/09 10:32:37;;;;;;;;;;;21.70;99.90;;;;;;5011775;28;19926;-67
2022/10/09 10:35:08;;;;;;;;;;;21.70;99.90;;;;;;5012162;28;19933;-67
2022/10/09 10:37:45;;;;;;;;;;;21.70;99.90;;;;;;5021781;28;19926;-66
2022/10/09 10:40:21;;;;;;;;;;;21.70;99.90;;;;;;5015243;28;19937;-67
2022/10/09 10:42:57;;;;;;;;;;;21.60;99.90;;;;;;5008477;28;20204;-67
2022/10/09 10:45:38;;;;;;;;;;;21.60;99.90;;;;;;5005396;28;19929;-66
2022/10/09 10:48:08;;;;;;;;;;;21.60;99.90;;;;;;5016471;28;19929;-67
2022/10/09 10:50:41;;;;;;;;;;;21.60;99.90;;;;;;5014462;28;19933;-65
2022/10/09 10:53:20;;;;;;;;;;;21.50;99.90;;;;;;5017964;28;19937;-66
2022/10/09 10:55:47;;;;;;;;;;;21.50;99.90;;;;;;5018004;28;19929;-67
2022/10/09 10:58:25;;;;;;;;;;;21.40;99.90;;;;;;5013187;28;19936;-67
2022/10/09 11:00:54;;;;;;;;;;;21.40;99.90;;;;;;5010911;28;19935;-67
2022/10/09 11:03:27;;;;;;;;;;;21.40;99.90;;;;;;5018382;28;19926;-67
2022/10/09 11:06:18;;;;;;;;;;;21.40;99.90;;;;;;5011965;28;19931;-66
2022/10/09 11:08:59;;;;;;;;;;;21.40;99.90;;;;;;5002853;28;20316;-67
2022/10/09 11:11:32;;;;;;;;;;;21.30;99.90;;;;;;5019323;28;19930;-67
2022/10/09 11:14:10;;;;;;;;;;;21.30;99.90;;;;;;5014468;28;19940;-66
2022/10/09 11:16:37;;;;;;;;;;;21.30;99.90;;;;;;5018626;28;20416;-67
2022/10/09 11:19:13;;;;;;;;;;;21.20;99.90;;;;;;5013260;28;19925;-67
2022/10/09 11:21:40;;;;;;;;;;;21.20;99.90;;;;;;5012022;28;19936;-67
2022/10/09 11:24:22;;;;;;;;;;;21.20;99.90;;;;;;5016728;28;19930;-67
2022/10/09 11:26:50;;;;;;;;;;;21.20;99.90;;;;;;5010779;28;19940;-67
2022/10/09 11:29:20;;;;;;;;;;;21.20;99.90;;;;;;5011255;28;19936;-66
2022/10/09 11:32:00;;;;;;;;;;;21.20;99.90;;;;;;5017716;28;19929;-67
2022/10/09 11:34:30;;;;;;;;;;;21.20;99.90;;;;;;5016231;28;19933;-66
2022/10/09 11:36:58;;;;;;;;;;;21.20;99.90;;;;;;4999084;28;19926;-66
2022/10/09 11:39:29;;;;;;;;;;;21.20;99.90;;;;;;5004372;28;19937;-66
2022/10/09 11:41:57;;;;;;;;;;;21.30;99.90;;;;;;5011691;28;20400;-68
2022/10/09 11:44:30;;;;;;;;;;;21.30;99.90;;;;;;5001668;28;20404;-67
2022/10/09 11:47:12;;;;;;;;;;;21.40;99.90;;;;;;5017403;28;19929;-67
2022/10/09 11:49:45;;;;;;;;;;;21.40;99.90;;;;;;5010101;28;20502;-68
2022/10/09 11:52:19;;;;;;;;;;;21.40;99.90;;;;;;5005549;28;19926;-66
2022/10/09 11:54:46;;;;;;;;;;;21.50;99.90;;;;;;5015964;28;19930;-68
2022/10/09 11:57:13;;;;;;;;;;;21.50;99.90;;;;;;5012627;28;20424;-66
2022/10/09 11:59:41;;;;;;;;;;;21.50;99.90;;;;;;5010606;28;20415;-67
2022/10/09 12:02:20;;;;;;;;;;;21.60;99.90;;;;;;5015594;28;19971;-66
2022/10/09 12:04:47;;;;;;;;;;;21.60;99.90;;;;;;5017382;28;19926;-68
2022/10/09 12:07:32;;;;;;;;;;;21.60;99.90;;;;;;5017002;28;19926;-69
2022/10/09 12:10:07;;;;;;;;;;;21.60;99.90;;;;;;5016140;28;19933;-67
2022/10/09 12:12:37;;;;;;;;;;;21.60;99.90;;;;;;5013743;28;19929;-66
2022/10/09 12:15:22;;;;;;;;;;;21.60;99.90;;;;;;5002493;28;19937;-67
2022/10/09 12:17:49;;;;;;;;;;;21.60;99.90;;;;;;5006016;28;20404;-68
2022/10/09 12:20:18;;;;;;;;;;;21.60;99.90;;;;;;5014573;28;19929;-68
2022/10/09 12:22:54;;;;;;;;;;;21.60;99.90;;;;;;5016835;28;19943;-69
2022/10/09 12:25:43;;;;;;;;;;;21.60;99.90;;;;;;5021921;28;19930;-68
2022/10/09 12:28:28;;;;;;;;;;;21.60;99.90;;;;;;5019709;28;20392;-67
2022/10/09 12:30:56;;;;;;;;;;;21.60;99.90;;;;;;5011953;28;19938;-66
2022/10/09 12:33:34;;;;;;;;;;;21.60;99.90;;;;;;5016727;28;19936;-67
2022/10/09 12:36:10;;;;;;;;;;;21.60;99.90;;;;;;5002600;28;19929;-66
2022/10/09 12:38:37;;;;;;;;;;;21.50;99.90;;;;;;5016909;28;19929;-68
2022/10/09 12:41:06;;;;;;;;;;;21.50;99.90;;;;;;5018663;28;19936;-68
2022/10/09 12:43:33;;;;;;;;;;;21.50;99.90;;;;;;5010251;28;20403;-68
2022/10/09 12:46:00;;;;;;;;;;;21.50;99.90;;;;;;5008695;28;19933;-68
2022/10/09 12:48:29;;;;;;;;;;;21.50;99.90;;;;;;5025854;28;19933;-68
2022/10/09 12:50:56;;;;;;;;;;;21.50;99.90;;;;;;5013690;28;20427;-68
2022/10/09 12:53:25;;;;;;;;;;;21.50;99.90;;;;;;5011249;28;20036;-68
2022/10/09 12:55:58;;;;;;;;;;;21.50;99.90;;;;;;5010604;28;19924;-68
2022/10/09 12:58:26;;;;;;;;;;;21.50;99.90;;;;;;5023041;28;19930;-67
2022/10/09 13:00:55;;;;;;;;;;;21.50;99.90;;;;;;5007117;28;19957;-68
2022/10/09 13:03:23;;;;;;;;;;;21.50;99.90;;;;;;5023177;28;19929;-69
2022/10/09 13:05:51;;;;;;;;;;;21.50;99.90;;;;;;5012862;28;19930;-65
2022/10/09 13:08:29;;;;;;;;;;;21.60;99.90;;;;;;5009954;28;19929;-66
2022/10/09 13:11:10;;;;;;;;;;;21.60;99.90;;;;;;5010850;28;19936;-67
2022/10/09 13:13:38;;;;;;;;;;;21.70;99.90;;;;;;5004651;28;19934;-69
2022/10/09 13:16:08;;;;;;;;;;;21.70;99.90;;;;;;5022152;28;20277;-66
2022/10/09 13:18:36;;;;;;;;;;;21.70;99.90;;;;;;5007717;28;19929;-67
2022/10/09 13:21:21;;;;;;;;;;;21.80;99.90;;;;;;5010783;28;19948;-65
2022/10/09 13:23:48;;;;;;;;;;;21.80;99.90;;;;;;5010142;28;19933;-68
2022/10/09 13:26:23;;;;;;;;;;;21.90;99.90;;;;;;5015603;28;19928;-68
2022/10/09 13:28:50;;;;;;;;;;;21.90;99.90;;;;;;5015974;28;19933;-68
2022/10/09 13:31:17;;;;;;;;;;;21.90;99.90;;;;;;5008000;28;19933;-69
2022/10/09 13:33:45;;;;;;;;;;;22.00;99.90;;;;;;5007408;28;19930;-67
2022/10/09 13:36:13;;;;;;;;;;;22.00;99.90;;;;;;5011929;28;19926;-67
2022/10/09 13:38:41;;;;;;;;;;;21.90;99.90;;;;;;5020203;28;19941;-67
2022/10/09 13:41:13;;;;;;;;;;;22.00;99.90;;;;;;5024258;28;19929;-65
2022/10/09 13:43:40;;;;;;;;;;;21.90;99.90;;;;;;5029972;28;19933;-68
2022/10/09 13:46:07;;;;;;;;;;;21.90;99.90;;;;;;5011283;28;19948;-67
2022/10/09 13:48:36;;;;;;;;;;;21.80;99.90;;;;;;5003572;28;19930;-67
2022/10/09 13:51:04;;;;;;;;;;;21.70;99.90;;;;;;5003177;28;19926;-66
2022/10/09 13:53:31;;;;;;;;;;;21.70;99.90;;;;;;5002709;28;19936;-68
2022/10/09 13:55:58;;;;;;;;;;;21.70;99.90;;;;;;5017405;28;20404;-67
2022/10/09 13:58:27;;;;;;;;;;;21.60;99.90;;;;;;5007818;28;19944;-68
2022/10/09 14:00:54;;;;;;;;;;;21.60;99.90;;;;;;5009520;28;19929;-67
2022/10/09 14:03:21;;;;;;;;;;;21.60;99.90;;;;;;5009017;28;19930;-66
2022/10/09 14:05:48;;;;;;;;;;;21.60;99.90;;;;;;5008610;28;19940;-67
2022/10/09 14:08:16;;;;;;;;;;;21.50;99.90;;;;;;5008842;28;20033;-68
2022/10/09 14:10:43;;;;;;;;;;;21.50;99.90;;;;;;5015708;28;20009;-67
2022/10/09 14:13:10;;;;;;;;;;;21.50;99.90;;;;;;5015961;28;19944;-67
2022/10/09 14:15:38;;;;;;;;;;;21.50;99.90;;;;;;5015749;28;19929;-69
2022/10/09 14:18:05;;;;;;;;;;;21.40;99.90;;;;;;5019581;28;20320;-66
2022/10/09 14:20:33;;;;;;;;;;;21.40;99.90;;;;;;5007589;28;19934;-67
2022/10/09 14:23:00;;;;;;;;;;;21.40;99.90;;;;;;5001912;28;19930;-68
2022/10/09 14:25:27;;;;;;;;;;;21.40;99.90;;;;;;5017050;28;19940;-67
2022/10/09 14:27:54;;;;;;;;;;;21.40;99.90;;;;;;5017508;28;19937;-65
2022/10/09 14:30:21;;;;;;;;;;;21.40;99.90;;;;;;5012264;28;19948;-67
2022/10/09 14:32:49;;;;;;;;;;;21.40;99.90;;;;;;5008258;28;19948;-68